Thursday, August 16, 2018, 9:58 AM EDT
Back to Local

KAUG, Augusta State Airport

Location: Augusta, ME, United States Lat: 44.317
Local Time: 9:58 AM EDT (13:58 GMT) Lon: -69.8
Time Zone: US/Eastern Elev: 351 ft

Show me the last for .
Show Decoded

2018-08-16 08:53 METAR KAUG 161253Z AUTO 29005KT 10SM FEW070 OVC090 22/18 A2997 RMK AO2
                 RAB1154E06 SLP146 P0000 T02220183 =
2018-08-16 07:53 METAR KAUG 161153Z AUTO 29005KT 10SM BKN070 OVC090 22/18 A2996 RMK AO2 SLP143
                 T02170178 10222 20194 52015 =
2018-08-16 06:53 METAR KAUG 161053Z AUTO 00000KT 10SM BKN095 BKN110 21/18 A2994 RMK AO2 SLP137
                 T02110183 =
2018-08-16 05:53 METAR KAUG 160953Z AUTO 00000KT 10SM BKN100 BKN120 20/18 A2993 RMK AO2 SLP133
                 T02000183 =
2018-08-16 04:53 METAR KAUG 160853Z AUTO 00000KT 10SM BKN110 21/18 A2991 RMK AO2 SLP128 T02060178
                 53012 =
2018-08-16 03:53 METAR KAUG 160753Z AUTO 00000KT 10SM FEW050 SCT100 21/17 A2990 RMK AO2 SLP124
                 T02060172 =
2018-08-16 02:53 METAR KAUG 160653Z AUTO 00000KT 10SM OVC100 21/19 A2988 RMK AO2 SLP118 T02110189
                 =
2018-08-16 01:53 METAR KAUG 160553Z AUTO 32005KT 10SM CLR 21/20 A2988 RMK AO2 SLP115 T02110200
                 10233 20211 50003 =
2018-08-16 00:53 METAR KAUG 160453Z AUTO 34004KT 7SM BKN060 21/21 A2988 RMK AO2 LTG DSNT NE
                 SLP118 T02110206 402890200 =
2018-08-15 23:53 METAR KAUG 160353Z AUTO 00000KT 6SM BR FEW002 FEW090 BKN110 21/21 A2988 RMK AO2
                 LTG DSNT N AND NW SLP116 T02110206 =
2018-08-15 22:53 METAR KAUG 160253Z AUTO 00000KT 9SM CLR 22/21 A2987 RMK AO2 SLP112 T02220211
                 50013 =
2018-08-15 21:53 METAR KAUG 160153Z AUTO 19003KT 10SM CLR 22/21 A2987 RMK AO2 SLP114 T02220211 =
2018-08-15 20:53 METAR KAUG 160053Z AUTO 00000KT 10SM CLR 23/21 A2986 RMK AO2 SLP111 T02280211 =
2018-08-15 19:53 METAR KAUG 152353Z AUTO VRB05KT 10SM CLR 23/22 A2983 RMK AO2 SLP099 T02330217
                 10289 20233 53010 =
2018-08-15 18:53 METAR KAUG 152253Z AUTO 18005KT 10SM SCT060 26/21 A2981 RMK AO2 SLP094 T02560206
                 =
2018-08-15 17:53 METAR KAUG 152153Z AUTO 21004KT 10SM CLR 28/21 A2980 RMK AO2 SLP089 T02780211 =
2018-08-15 16:53 METAR KAUG 152053Z AUTO VRB05KT 10SM SCT039 28/20 A2980 RMK AO2 SLP089 T02780200
                 58003 =
2018-08-15 15:53 METAR KAUG 151953Z AUTO 25004KT 10SM CLR 27/20 A2981 RMK AO2 LTG DSNT SW-N
                 SLP094 T02720200 =
2018-08-15 14:53 METAR KAUG 151853Z AUTO VRB06KT 10SM CLR 28/19 A2980 RMK AO2 LTG DSNT W-N SLP090
                 T02780194 =
2018-08-15 13:53 METAR KAUG 151753Z AUTO VRB05KT 10SM SCT031 28/19 A2981 RMK AO2 SLP092 T02780194
                 10283 20217 58012 =
2018-08-15 12:53 METAR KAUG 151653Z AUTO VRB03KT 10SM SCT029 27/20 A2982 RMK AO2 SLP097 T02720200
                 =
2018-08-15 11:53 METAR KAUG 151553Z AUTO 33005KT 10SM FEW019 26/19 A2984 RMK AO2 SLP103 T02560194
                 =
2018-08-15 11:22 METAR KAUG 151522Z AUTO VRB04KT 10SM SCT016 24/19 A2984 RMK AO2 T02440194 =
2018-08-15 11:03 METAR KAUG 151503Z AUTO VRB04KT 10SM BKN015 23/20 A2985 RMK AO2 T02330200 =
2018-08-15 10:53 METAR KAUG 151453Z AUTO VRB03KT 10SM BKN013 23/20 A2985 RMK AO2 SLP105 T02330200
                 53004 =

Support USWX by starting your Amazon purchase here.